sensor_id;sensor_type;location;lat;lon;timestamp;temperature;humidity
8436;DHT22;4255;48.730;9.156;2023-03-01T00:00:53;1.20;99.90
8436;DHT22;4255;48.730;9.156;2023-03-01T00:03:18;1.00;99.90
8436;DHT22;4255;48.730;9.156;2023-03-01T00:05:45;1.00;99.90
8436;DHT22;4255;48.730;9.156;2023-03-01T00:08:11;1.10;99.90
8436;DHT22;4255;48.730;9.156;2023-03-01T00:10:36;1.10;99.90
8436;DHT22;4255;48.730;9.156;2023-03-01T00:13:02;1.20;99.90
8436;DHT22;4255;48.730;9.156;2023-03-01T00:15:31;1.00;99.90
8436;DHT22;4255;48.730;9.156;2023-03-01T00:17:56;1.10;99.90
8436;DHT22;4255;48.730;9.156;2023-03-01T00:20:22;1.10;99.90
8436;DHT22;4255;48.730;9.156;2023-03-01T00:22:48;1.10;99.90
8436;DHT22;4255;48.730;9.156;2023-03-01T00:25:14;1.00;99.90
8436;DHT22;4255;48.730;9.156;2023-03-01T00:27:39;1.00;99.90
8436;DHT22;4255;48.730;9.156;2023-03-01T00:30:05;1.20;99.90
8436;DHT22;4255;48.730;9.156;2023-03-01T00:32:31;1.30;99.90
8436;DHT22;4255;48.730;9.156;2023-03-01T00:34:57;1.40;99.90
8436;DHT22;4255;48.730;9.156;2023-03-01T00:37:23;1.40;99.90
8436;DHT22;4255;48.730;9.156;2023-03-01T00:39:49;1.40;99.90
8436;DHT22;4255;48.730;9.156;2023-03-01T00:42:15;1.40;99.90
8436;DHT22;4255;48.730;9.156;2023-03-01T00:44:41;1.30;99.90
8436;DHT22;4255;48.730;9.156;2023-03-01T00:47:07;1.10;99.90
8436;DHT22;4255;48.730;9.156;2023-03-01T00:49:32;1.10;99.90
8436;DHT22;4255;48.730;9.156;2023-03-01T00:51:58;1.10;99.90
8436;DHT22;4255;48.730;9.156;2023-03-01T00:54:23;1.10;99.90
8436;DHT22;4255;48.730;9.156;2023-03-01T00:56:49;1.00;99.90
8436;DHT22;4255;48.730;9.156;2023-03-01T00:59:14;0.90;99.90
8436;DHT22;4255;48.730;9.156;2023-03-01T01:01:40;1.00;99.90
8436;DHT22;4255;48.730;9.156;2023-03-01T01:04:09;0.90;99.90
8436;DHT22;4255;48.730;9.156;2023-03-01T01:06:53;0.90;99.90
8436;DHT22;4255;48.730;9.156;2023-03-01T01:09:19;0.80;99.90
8436;DHT22;4255;48.730;9.156;2023-03-01T01:11:49;0.50;99.90
8436;DHT22;4255;48.730;9.156;2023-03-01T01:14:16;0.30;99.90
8436;DHT22;4255;48.730;9.156;2023-03-01T01:16:42;0.20;99.90
8436;DHT22;4255;48.730;9.156;2023-03-01T01:19:10;0.20;99.90
8436;DHT22;4255;48.730;9.156;2023-03-01T01:21:36;0.20;99.90
8436;DHT22;4255;48.730;9.156;2023-03-01T01:24:03;0.10;99.90
8436;DHT22;4255;48.730;9.156;2023-03-01T01:26:31;0.10;99.90
8436;DHT22;4255;48.730;9.156;2023-03-01T01:28:58;0.00;99.90
8436;DHT22;4255;48.730;9.156;2023-03-01T01:31:25;0.00;99.90
8436;DHT22;4255;48.730;9.156;2023-03-01T01:33:51;0.20;99.90
8436;DHT22;4255;48.730;9.156;2023-03-01T01:36:17;0.30;99.90
8436;DHT22;4255;48.730;9.156;2023-03-01T01:38:43;0.40;99.90
8436;DHT22;4255;48.730;9.156;2023-03-01T01:41:10;0.40;99.90
8436;DHT22;4255;48.730;9.156;2023-03-01T01:43:41;0.40;99.90
8436;DHT22;4255;48.730;9.156;2023-03-01T01:48:47;0.70;99.90
8436;DHT22;4255;48.730;9.156;2023-03-01T01:51:18;0.70;99.90
8436;DHT22;4255;48.730;9.156;2023-03-01T01:53:47;0.70;99.90
8436;DHT22;4255;48.730;9.156;2023-03-01T01:56:15;0.50;99.90
8436;DHT22;4255;48.730;9.156;2023-03-01T01:58:42;0.50;99.90
8436;DHT22;4255;48.730;9.156;2023-03-01T02:01:09;0.40;99.90
8436;DHT22;4255;48.730;9.156;2023-03-01T02:03:37;0.40;99.90
8436;DHT22;4255;48.730;9.156;2023-03-01T02:08:45;0.50;99.90
8436;DHT22;4255;48.730;9.156;2023-03-01T02:11:13;0.50;99.90
8436;DHT22;4255;48.730;9.156;2023-03-01T02:13:42;0.60;99.90
8436;DHT22;4255;48.730;9.156;2023-03-01T02:16:10;0.80;99.90
8436;DHT22;4255;48.730;9.156;2023-03-01T02:18:37;0.90;99.90
8436;DHT22;4255;48.730;9.156;2023-03-01T02:24:29;1.00;99.90
8436;DHT22;4255;48.730;9.156;2023-03-01T02:26:55;1.10;99.90
8436;DHT22;4255;48.730;9.156;2023-03-01T02:29:23;1.10;99.90
8436;DHT22;4255;48.730;9.156;2023-03-01T02:31:49;1.20;99.90
8436;DHT22;4255;48.730;9.156;2023-03-01T02:34:20;1.20;99.90
8436;DHT22;4255;48.730;9.156;2023-03-01T02:37:13;1.20;99.90
8436;DHT22;4255;48.730;9.156;2023-03-01T02:39:44;1.20;99.90
8436;DHT22;4255;48.730;9.156;2023-03-01T02:42:14;1.10;99.90
8436;DHT22;4255;48.730;9.156;2023-03-01T02:44:41;1.10;99.90
8436;DHT22;4255;48.730;9.156;2023-03-01T02:47:06;1.00;99.90
8436;DHT22;4255;48.730;9.156;2023-03-01T02:49:35;0.90;99.90
8436;DHT22;4255;48.730;9.156;2023-03-01T02:55:11;0.80;99.90
8436;DHT22;4255;48.730;9.156;2023-03-01T02:57:40;0.50;99.90
8436;DHT22;4255;48.730;9.156;2023-03-01T03:00:12;0.60;99.90
8436;DHT22;4255;48.730;9.156;2023-03-01T03:02:45;0.60;99.90
8436;DHT22;4255;48.730;9.156;2023-03-01T03:05:15;0.70;99.90
8436;DHT22;4255;48.730;9.156;2023-03-01T03:07:43;0.60;99.90
8436;DHT22;4255;48.730;9.156;2023-03-01T03:10:15;0.60;99.90
8436;DHT22;4255;48.730;9.156;2023-03-01T03:12:41;0.50;99.90
8436;DHT22;4255;48.730;9.156;2023-03-01T03:15:09;0.60;99.90
8436;DHT22;4255;48.730;9.156;2023-03-01T03:17:40;0.70;99.90
8436;DHT22;4255;48.730;9.156;2023-03-01T03:20:07;0.60;99.90
8436;DHT22;4255;48.730;9.156;2023-03-01T03:22:38;0.60;99.90
8436;DHT22;4255;48.730;9.156;2023-03-01T03:25:06;0.50;99.90
8436;DHT22;4255;48.730;9.156;2023-03-01T03:27:36;0.50;99.90
8436;DHT22;4255;48.730;9.156;2023-03-01T03:30:04;0.60;99.90
8436;DHT22;4255;48.730;9.156;2023-03-01T03:32:35;0.50;99.90
8436;DHT22;4255;48.730;9.156;2023-03-01T03:35:01;0.50;99.90
8436;DHT22;4255;48.730;9.156;2023-03-01T03:37:27;0.40;99.90
8436;DHT22;4255;48.730;9.156;2023-03-01T03:40:11;0.50;99.90
8436;DHT22;4255;48.730;9.156;2023-03-01T03:42:41;0.40;99.90
8436;DHT22;4255;48.730;9.156;2023-03-01T03:45:07;0.40;99.90
8436;DHT22;4255;48.730;9.156;2023-03-01T03:47:32;0.40;99.90
8436;DHT22;4255;48.730;9.156;2023-03-01T03:49:58;0.50;99.90
8436;DHT22;4255;48.730;9.156;2023-03-01T03:52:23;0.60;99.90
8436;DHT22;4255;48.730;9.156;2023-03-01T03:54:49;0.70;99.90
8436;DHT22;4255;48.730;9.156;2023-03-01T03:57:15;0.70;99.90
8436;DHT22;4255;48.730;9.156;2023-03-01T03:59:40;0.90;99.90
8436;DHT22;4255;48.730;9.156;2023-03-01T04:02:06;1.00;99.90
8436;DHT22;4255;48.730;9.156;2023-03-01T04:04:34;0.80;99.90
8436;DHT22;4255;48.730;9.156;2023-03-01T04:06:59;0.90;99.90
8436;DHT22;4255;48.730;9.156;2023-03-01T04:09:25;0.90;99.90
8436;DHT22;4255;48.730;9.156;2023-03-01T04:11:51;0.90;99.90
8436;DHT22;4255;48.730;9.156;2023-03-01T04:14:16;0.90;99.90
8436;DHT22;4255;48.730;9.156;2023-03-01T04:16:42;1.10;99.90
8436;DHT22;4255;48.730;9.156;2023-03-01T04:19:08;1.20;99.90
8436;DHT22;4255;48.730;9.156;2023-03-01T04:21:35;1.10;99.90
8436;DHT22;4255;48.730;9.156;2023-03-01T04:24:01;1.00;99.90
8436;DHT22;4255;48.730;9.156;2023-03-01T04:26:29;1.00;99.90
8436;DHT22;4255;48.730;9.156;2023-03-01T04:28:55;1.10;99.90
8436;DHT22;4255;48.730;9.156;2023-03-01T04:31:21;1.10;99.90
8436;DHT22;4255;48.730;9.156;2023-03-01T04:33:51;1.00;99.90
8436;DHT22;4255;48.730;9.156;2023-03-01T04:36:18;1.10;99.90
8436;DHT22;4255;48.730;9.156;2023-03-01T04:38:45;1.10;99.90
8436;DHT22;4255;48.730;9.156;2023-03-01T04:41:15;1.10;99.90
8436;DHT22;4255;48.730;9.156;2023-03-01T04:43:41;1.30;99.90
8436;DHT22;4255;48.730;9.156;2023-03-01T04:46:10;1.40;99.90
8436;DHT22;4255;48.730;9.156;2023-03-01T04:48:38;1.50;99.90
8436;DHT22;4255;48.730;9.156;2023-03-01T04:51:04;1.60;99.90
8436;DHT22;4255;48.730;9.156;2023-03-01T04:53:31;1.70;99.90
8436;DHT22;4255;48.730;9.156;2023-03-01T04:55:58;1.70;99.90
8436;DHT22;4255;48.730;9.156;2023-03-01T04:58:25;1.70;99.90
8436;DHT22;4255;48.730;9.156;2023-03-01T05:00:51;1.70;99.90
8436;DHT22;4255;48.730;9.156;2023-03-01T05:03:18;1.70;99.90
8436;DHT22;4255;48.730;9.156;2023-03-01T05:05:45;1.80;99.90
8436;DHT22;4255;48.730;9.156;2023-03-01T05:08:12;1.90;99.90
8436;DHT22;4255;48.730;9.156;2023-03-01T05:10:51;2.00;99.90
8436;DHT22;4255;48.730;9.156;2023-03-01T05:13:18;2.10;99.90
8436;DHT22;4255;48.730;9.156;2023-03-01T05:15:58;1.80;99.90
8436;DHT22;4255;48.730;9.156;2023-03-01T05:18:24;1.50;99.90
8436;DHT22;4255;48.730;9.156;2023-03-01T05:21:11;1.60;99.90
8436;DHT22;4255;48.730;9.156;2023-03-01T05:23:37;1.40;99.90
8436;DHT22;4255;48.730;9.156;2023-03-01T05:26:04;1.30;99.90
8436;DHT22;4255;48.730;9.156;2023-03-01T05:28:32;1.30;99.90
8436;DHT22;4255;48.730;9.156;2023-03-01T05:30:58;1.20;99.90
8436;DHT22;4255;48.730;9.156;2023-03-01T05:33:24;1.00;99.90
8436;DHT22;4255;48.730;9.156;2023-03-01T05:35:51;1.00;99.90
8436;DHT22;4255;48.730;9.156;2023-03-01T05:38:18;1.10;99.90
8436;DHT22;4255;48.730;9.156;2023-03-01T05:40:46;1.00;99.90
8436;DHT22;4255;48.730;9.156;2023-03-01T05:43:13;1.10;99.90
8436;DHT22;4255;48.730;9.156;2023-03-01T05:45:40;1.20;99.90
8436;DHT22;4255;48.730;9.156;2023-03-01T05:48:07;1.10;99.90
8436;DHT22;4255;48.730;9.156;2023-03-01T05:50:35;1.00;99.90
8436;DHT22;4255;48.730;9.156;2023-03-01T05:53:04;1.00;99.90
8436;DHT22;4255;48.730;9.156;2023-03-01T05:55:34;0.90;99.90
8436;DHT22;4255;48.730;9.156;2023-03-01T05:58:05;1.00;99.90
8436;DHT22;4255;48.730;9.156;2023-03-01T06:00:32;0.90;99.90
8436;DHT22;4255;48.730;9.156;2023-03-01T06:02:58;0.80;99.90
8436;DHT22;4255;48.730;9.156;2023-03-01T06:05:24;0.70;99.90
8436;DHT22;4255;48.730;9.156;2023-03-01T06:07:50;0.70;99.90
8436;DHT22;4255;48.730;9.156;2023-03-01T06:10:17;0.80;99.90
8436;DHT22;4255;48.730;9.156;2023-03-01T06:12:43;0.90;99.90
8436;DHT22;4255;48.730;9.156;2023-03-01T06:15:11;1.00;99.90
8436;DHT22;4255;48.730;9.156;2023-03-01T06:17:38;0.90;99.90
8436;DHT22;4255;48.730;9.156;2023-03-01T06:22:33;0.90;99.90
8436;DHT22;4255;48.730;9.156;2023-03-01T06:24:59;0.90;99.90
8436;DHT22;4255;48.730;9.156;2023-03-01T06:27:25;1.00;99.90
8436;DHT22;4255;48.730;9.156;2023-03-01T06:29:50;1.10;99.90
8436;DHT22;4255;48.730;9.156;2023-03-01T06:32:16;1.30;99.90
8436;DHT22;4255;48.730;9.156;2023-03-01T06:34:42;1.50;99.90
8436;DHT22;4255;48.730;9.156;2023-03-01T06:37:08;1.70;99.90
8436;DHT22;4255;48.730;9.156;2023-03-01T06:39:34;1.70;99.90
8436;DHT22;4255;48.730;9.156;2023-03-01T06:41:59;1.60;99.90
8436;DHT22;4255;48.730;9.156;2023-03-01T06:44:26;1.80;99.90
8436;DHT22;4255;48.730;9.156;2023-03-01T06:46:52;1.90;99.90
8436;DHT22;4255;48.730;9.156;2023-03-01T06:49:17;1.90;99.90
8436;DHT22;4255;48.730;9.156;2023-03-01T06:51:44;1.70;99.90
8436;DHT22;4255;48.730;9.156;2023-03-01T06:54:10;1.60;99.90
8436;DHT22;4255;48.730;9.156;2023-03-01T06:56:36;1.60;99.90
8436;DHT22;4255;48.730;9.156;2023-03-01T06:59:02;1.60;99.90
8436;DHT22;4255;48.730;9.156;2023-03-01T07:01:29;1.70;99.90
8436;DHT22;4255;48.730;9.156;2023-03-01T07:03:54;1.60;99.90
8436;DHT22;4255;48.730;9.156;2023-03-01T07:06:20;1.40;99.90
8436;DHT22;4255;48.730;9.156;2023-03-01T07:08:46;1.40;99.90
8436;DHT22;4255;48.730;9.156;2023-03-01T07:11:12;1.60;99.90
8436;DHT22;4255;48.730;9.156;2023-03-01T07:13:38;1.60;99.90
8436;DHT22;4255;48.730;9.156;2023-03-01T07:16:04;1.40;99.90
8436;DHT22;4255;48.730;9.156;2023-03-01T07:18:29;1.20;99.90
8436;DHT22;4255;48.730;9.156;2023-03-01T07:20:55;1.20;99.90
8436;DHT22;4255;48.730;9.156;2023-03-01T07:23:20;1.30;99.90
8436;DHT22;4255;48.730;9.156;2023-03-01T07:25:53;1.20;99.90
8436;DHT22;4255;48.730;9.156;2023-03-01T07:28:19;1.00;99.90
8436;DHT22;4255;48.730;9.156;2023-03-01T07:30:45;1.20;99.90
8436;DHT22;4255;48.730;9.156;2023-03-01T07:33:10;1.10;99.90
8436;DHT22;4255;48.730;9.156;2023-03-01T07:35:36;1.20;99.90
8436;DHT22;4255;48.730;9.156;2023-03-01T07:38:02;1.20;99.90
8436;DHT22;4255;48.730;9.156;2023-03-01T07:40:27;1.40;99.90
8436;DHT22;4255;48.730;9.156;2023-03-01T07:42:57;1.50;99.90
8436;DHT22;4255;48.730;9.156;2023-03-01T07:45:23;1.70;99.90
8436;DHT22;4255;48.730;9.156;2023-03-01T07:47:51;1.70;99.90
8436;DHT22;4255;48.730;9.156;2023-03-01T07:50:16;1.80;99.90
8436;DHT22;4255;48.730;9.156;2023-03-01T07:52:45;1.60;99.90
8436;DHT22;4255;48.730;9.156;2023-03-01T07:55:11;1.60;99.90
8436;DHT22;4255;48.730;9.156;2023-03-01T07:57:37;1.50;99.90
8436;DHT22;4255;48.730;9.156;2023-03-01T08:00:04;1.50;99.90
8436;DHT22;4255;48.730;9.156;2023-03-01T08:02:30;1.70;99.90
8436;DHT22;4255;48.730;9.156;2023-03-01T08:04:55;1.90;99.90
8436;DHT22;4255;48.730;9.156;2023-03-01T08:07:21;2.00;99.90
8436;DHT22;4255;48.730;9.156;2023-03-01T08:09:47;2.00;99.90
8436;DHT22;4255;48.730;9.156;2023-03-01T08:12:12;2.20;99.90
8436;DHT22;4255;48.730;9.156;2023-03-01T08:14:38;2.10;99.90
8436;DHT22;4255;48.730;9.156;2023-03-01T08:17:03;2.10;99.90
8436;DHT22;4255;48.730;9.156;2023-03-01T08:19:29;2.10;99.90
8436;DHT22;4255;48.730;9.156;2023-03-01T08:21:55;1.90;99.90
8436;DHT22;4255;48.730;9.156;2023-03-01T08:24:23;2.00;99.90
8436;DHT22;4255;48.730;9.156;2023-03-01T08:26:49;2.30;99.90
8436;DHT22;4255;48.730;9.156;2023-03-01T08:29:15;2.50;99.90
8436;DHT22;4255;48.730;9.156;2023-03-01T08:31:40;2.50;99.90
8436;DHT22;4255;48.730;9.156;2023-03-01T08:34:09;2.50;99.90
8436;DHT22;4255;48.730;9.156;2023-03-01T08:36:38;2.60;99.90
8436;DHT22;4255;48.730;9.156;2023-03-01T08:39:05;2.70;99.90
8436;DHT22;4255;48.730;9.156;2023-03-01T08:41:31;2.50;99.90
8436;DHT22;4255;48.730;9.156;2023-03-01T08:43:57;2.50;99.90
8436;DHT22;4255;48.730;9.156;2023-03-01T08:46:27;2.40;99.90
8436;DHT22;4255;48.730;9.156;2023-03-01T08:48:53;2.60;99.90
8436;DHT22;4255;48.730;9.156;2023-03-01T08:51:20;2.60;99.90
8436;DHT22;4255;48.730;9.156;2023-03-01T08:53:46;2.80;99.90
8436;DHT22;4255;48.730;9.156;2023-03-01T08:56:12;2.80;99.90
8436;DHT22;4255;48.730;9.156;2023-03-01T08:58:38;2.90;99.90
8436;DHT22;4255;48.730;9.156;2023-03-01T09:01:13;3.00;99.90
8436;DHT22;4255;48.730;9.156;2023-03-01T09:03:39;3.00;99.90
8436;DHT22;4255;48.730;9.156;2023-03-01T09:06:06;3.20;99.90
8436;DHT22;4255;48.730;9.156;2023-03-01T09:08:35;3.30;99.90
8436;DHT22;4255;48.730;9.156;2023-03-01T09:11:02;3.00;99.90
8436;DHT22;4255;48.730;9.156;2023-03-01T09:13:28;2.80;99.90
8436;DHT22;4255;48.730;9.156;2023-03-01T09:15:57;2.90;99.90
8436;DHT22;4255;48.730;9.156;2023-03-01T09:18:22;3.30;99.90
8436;DHT22;4255;48.730;9.156;2023-03-01T09:20:48;3.30;99.90
8436;DHT22;4255;48.730;9.156;2023-03-01T09:23:14;3.30;99.90
8436;DHT22;4255;48.730;9.156;2023-03-01T09:25:39;3.20;99.90
8436;DHT22;4255;48.730;9.156;2023-03-01T09:28:05;3.20;99.90
8436;DHT22;4255;48.730;9.156;2023-03-01T09:30:30;3.40;99.90
8436;DHT22;4255;48.730;9.156;2023-03-01T09:32:56;3.50;99.90
8436;DHT22;4255;48.730;9.156;2023-03-01T09:35:22;3.50;99.90
8436;DHT22;4255;48.730;9.156;2023-03-01T09:37:48;3.60;99.90
8436;DHT22;4255;48.730;9.156;2023-03-01T09:40:18;3.80;99.90
8436;DHT22;4255;48.730;9.156;2023-03-01T09:42:49;4.00;99.90
8436;DHT22;4255;48.730;9.156;2023-03-01T09:45:27;4.00;99.90
8436;DHT22;4255;48.730;9.156;2023-03-01T09:47:53;3.90;99.90
8436;DHT22;4255;48.730;9.156;2023-03-01T09:50:20;4.00;99.90
8436;DHT22;4255;48.730;9.156;2023-03-01T09:55:25;3.90;99.90
8436;DHT22;4255;48.730;9.156;2023-03-01T10:00:43;4.20;99.90
8436;DHT22;4255;48.730;9.156;2023-03-01T10:03:17;4.00;99.90
8436;DHT22;4255;48.730;9.156;2023-03-01T10:11:22;4.20;99.90
8436;DHT22;4255;48.730;9.156;2023-03-01T10:16:46;4.40;99.90
8436;DHT22;4255;48.730;9.156;2023-03-01T10:19:43;4.50;99.90
8436;DHT22;4255;48.730;9.156;2023-03-01T10:22:17;4.90;99.90
8436;DHT22;4255;48.730;9.156;2023-03-01T10:24:44;4.90;99.90
8436;DHT22;4255;48.730;9.156;2023-03-01T10:30:22;4.50;99.90
8436;DHT22;4255;48.730;9.156;2023-03-01T10:32:55;4.80;99.90
8436;DHT22;4255;48.730;9.156;2023-03-01T10:35:24;5.00;99.90
8436;DHT22;4255;48.730;9.156;2023-03-01T10:38:08;5.30;99.90
8436;DHT22;4255;48.730;9.156;2023-03-01T10:40:35;5.50;99.90
8436;DHT22;4255;48.730;9.156;2023-03-01T10:43:04;5.40;99.90
8436;DHT22;4255;48.730;9.156;2023-03-01T10:53:28;5.50;99.90
8436;DHT22;4255;48.730;9.156;2023-03-01T10:56:04;5.40;99.90
8436;DHT22;4255;48.730;9.156;2023-03-01T10:58:31;5.50;99.90
8436;DHT22;4255;48.730;9.156;2023-03-01T11:01:03;5.80;99.90
8436;DHT22;4255;48.730;9.156;2023-03-01T11:03:35;6.10;99.90
8436;DHT22;4255;48.730;9.156;2023-03-01T11:08:43;5.50;99.90
8436;DHT22;4255;48.730;9.156;2023-03-01T11:11:14;5.60;99.90
8436;DHT22;4255;48.730;9.156;2023-03-01T11:13:59;5.70;99.90
8436;DHT22;4255;48.730;9.156;2023-03-01T11:16:29;5.80;99.90
8436;DHT22;4255;48.730;9.156;2023-03-01T11:19:20;5.80;99.90
8436;DHT22;4255;48.730;9.156;2023-03-01T11:24:40;6.20;99.90
8436;DHT22;4255;48.730;9.156;2023-03-01T11:27:16;6.40;99.90
8436;DHT22;4255;48.730;9.156;2023-03-01T11:29:46;6.30;99.90
8436;DHT22;4255;48.730;9.156;2023-03-01T11:32:16;6.40;99.90
8436;DHT22;4255;48.730;9.156;2023-03-01T11:37:40;6.60;99.90
8436;DHT22;4255;48.730;9.156;2023-03-01T11:40:14;6.50;99.90
8436;DHT22;4255;48.730;9.156;2023-03-01T11:43:04;6.40;99.90
8436;DHT22;4255;48.730;9.156;2023-03-01T11:46:29;6.30;99.90
8436;DHT22;4255;48.730;9.156;2023-03-01T11:51:02;6.50;99.90
8436;DHT22;4255;48.730;9.156;2023-03-01T12:08:09;7.00;99.90
8436;DHT22;4255;48.730;9.156;2023-03-01T12:13:56;6.90;99.90
8436;DHT22;4255;48.730;9.156;2023-03-01T12:22:09;7.50;99.90
8436;DHT22;4255;48.730;9.156;2023-03-01T12:25:21;7.40;99.90
8436;DHT22;4255;48.730;9.156;2023-03-01T12:30:55;7.40;99.90
8436;DHT22;4255;48.730;9.156;2023-03-01T12:36:27;7.40;99.90
8436;DHT22;4255;48.730;9.156;2023-03-01T12:42:01;7.50;99.90
8436;DHT22;4255;48.730;9.156;2023-03-01T12:49:56;7.40;99.90
8436;DHT22;4255;48.730;9.156;2023-03-01T12:52:38;7.70;99.90
8436;DHT22;4255;48.730;9.156;2023-03-01T12:55:15;7.70;99.90
8436;DHT22;4255;48.730;9.156;2023-03-01T12:57:50;7.70;99.90
8436;DHT22;4255;48.730;9.156;2023-03-01T13:00:29;7.70;99.90
8436;DHT22;4255;48.730;9.156;2023-03-01T13:03:17;7.60;99.90
8436;DHT22;4255;48.730;9.156;2023-03-01T13:06:11;7.50;99.90
8436;DHT22;4255;48.730;9.156;2023-03-01T13:08:47;7.60;99.90
8436;DHT22;4255;48.730;9.156;2023-03-01T13:11:20;7.70;99.90
8436;DHT22;4255;48.730;9.156;2023-03-01T13:13:46;7.80;99.90
8436;DHT22;4255;48.730;9.156;2023-03-01T13:19:14;8.40;99.90
8436;DHT22;4255;48.730;9.156;2023-03-01T13:21:45;8.30;99.90
8436;DHT22;4255;48.730;9.156;2023-03-01T13:24:27;7.90;99.90
8436;DHT22;4255;48.730;9.156;2023-03-01T13:29:54;7.80;99.90
8436;DHT22;4255;48.730;9.156;2023-03-01T13:32:23;7.70;99.90
8436;DHT22;4255;48.730;9.156;2023-03-01T13:34:51;7.70;99.90
8436;DHT22;4255;48.730;9.156;2023-03-01T13:37:26;7.70;99.90
8436;DHT22;4255;48.730;9.156;2023-03-01T13:39:55;7.70;99.90
8436;DHT22;4255;48.730;9.156;2023-03-01T13:42:38;8.30;99.90
8436;DHT22;4255;48.730;9.156;2023-03-01T13:45:59;8.70;99.90
8436;DHT22;4255;48.730;9.156;2023-03-01T13:48:03;8.70;99.90
8436;DHT22;4255;48.730;9.156;2023-03-01T13:50:42;8.50;99.90
8436;DHT22;4255;48.730;9.156;2023-03-01T13:53:12;8.50;99.90
8436;DHT22;4255;48.730;9.156;2023-03-01T13:55:45;8.40;99.90
8436;DHT22;4255;48.730;9.156;2023-03-01T13:58:26;8.40;99.90
8436;DHT22;4255;48.730;9.156;2023-03-01T14:00:57;8.50;99.90
8436;DHT22;4255;48.730;9.156;2023-03-01T14:03:23;8.70;99.90
8436;DHT22;4255;48.730;9.156;2023-03-01T14:06:08;8.50;99.90
8436;DHT22;4255;48.730;9.156;2023-03-01T14:08:35;8.40;99.90
8436;DHT22;4255;48.730;9.156;2023-03-01T14:21:45;8.20;99.90
8436;DHT22;4255;48.730;9.156;2023-03-01T14:24:20;8.10;99.90
8436;DHT22;4255;48.730;9.156;2023-03-01T14:26:46;7.80;99.90
8436;DHT22;4255;48.730;9.156;2023-03-01T14:29:33;7.80;99.90
8436;DHT22;4255;48.730;9.156;2023-03-01T14:32:27;8.00;99.90
8436;DHT22;4255;48.730;9.156;2023-03-01T14:34:54;8.10;99.90
8436;DHT22;4255;48.730;9.156;2023-03-01T14:37:34;8.20;99.90
8436;DHT22;4255;48.730;9.156;2023-03-01T14:40:02;8.30;99.90
8436;DHT22;4255;48.730;9.156;2023-03-01T14:42:31;8.10;99.90
8436;DHT22;4255;48.730;9.156;2023-03-01T14:45:01;8.20;99.90
8436;DHT22;4255;48.730;9.156;2023-03-01T14:47:32;8.20;99.90
8436;DHT22;4255;48.730;9.156;2023-03-01T14:50:26;8.10;99.90
8436;DHT22;4255;48.730;9.156;2023-03-01T14:52:49;8.00;99.90
8436;DHT22;4255;48.730;9.156;2023-03-01T14:55:53;8.00;99.90
8436;DHT22;4255;48.730;9.156;2023-03-01T14:58:15;7.90;99.90
8436;DHT22;4255;48.730;9.156;2023-03-01T15:00:54;8.10;99.90
8436;DHT22;4255;48.730;9.156;2023-03-01T15:03:32;8.40;99.90
8436;DHT22;4255;48.730;9.156;2023-03-01T15:06:00;8.40;99.90
8436;DHT22;4255;48.730;9.156;2023-03-01T15:08:27;8.40;99.90
8436;DHT22;4255;48.730;9.156;2023-03-01T15:11:00;8.20;99.90
8436;DHT22;4255;48.730;9.156;2023-03-01T15:13:32;8.10;99.90
8436;DHT22;4255;48.730;9.156;2023-03-01T15:16:15;8.10;99.90
8436;DHT22;4255;48.730;9.156;2023-03-01T15:18:56;8.20;99.90
8436;DHT22;4255;48.730;9.156;2023-03-01T15:21:25;8.10;99.90
8436;DHT22;4255;48.730;9.156;2023-03-01T15:24:01;8.00;99.90
8436;DHT22;4255;48.730;9.156;2023-03-01T15:26:37;8.00;99.90
8436;DHT22;4255;48.730;9.156;2023-03-01T15:29:04;8.00;99.90
8436;DHT22;4255;48.730;9.156;2023-03-01T15:31:42;7.80;99.90
8436;DHT22;4255;48.730;9.156;2023-03-01T15:34:27;7.70;99.90
8436;DHT22;4255;48.730;9.156;2023-03-01T15:36:54;7.80;99.90
8436;DHT22;4255;48.730;9.156;2023-03-01T15:39:42;7.60;99.90
8436;DHT22;4255;48.730;9.156;2023-03-01T15:42:36;7.50;99.90
8436;DHT22;4255;48.730;9.156;2023-03-01T15:47:50;7.60;99.90
8436;DHT22;4255;48.730;9.156;2023-03-01T15:50:22;7.40;99.90
8436;DHT22;4255;48.730;9.156;2023-03-01T15:52:48;7.40;99.90
8436;DHT22;4255;48.730;9.156;2023-03-01T15:55:23;7.60;99.90
8436;DHT22;4255;48.730;9.156;2023-03-01T15:57:49;7.60;99.90
8436;DHT22;4255;48.730;9.156;2023-03-01T16:00:16;7.40;99.90
8436;DHT22;4255;48.730;9.156;2023-03-01T16:02:43;7.20;99.90
8436;DHT22;4255;48.730;9.156;2023-03-01T16:05:30;7.10;99.90
8436;DHT22;4255;48.730;9.156;2023-03-01T16:07:56;7.20;99.90
8436;DHT22;4255;48.730;9.156;2023-03-01T16:10:22;7.30;99.90
8436;DHT22;4255;48.730;9.156;2023-03-01T16:12:50;7.10;99.90
8436;DHT22;4255;48.730;9.156;2023-03-01T16:17:48;7.00;99.90
8436;DHT22;4255;48.730;9.156;2023-03-01T16:20:13;7.00;99.90
8436;DHT22;4255;48.730;9.156;2023-03-01T16:22:43;7.00;99.90
8436;DHT22;4255;48.730;9.156;2023-03-01T16:25:10;6.90;99.90
8436;DHT22;4255;48.730;9.156;2023-03-01T16:27:36;6.90;99.90
8436;DHT22;4255;48.730;9.156;2023-03-01T16:30:03;6.90;99.90
8436;DHT22;4255;48.730;9.156;2023-03-01T16:32:29;6.80;99.90
8436;DHT22;4255;48.730;9.156;2023-03-01T16:34:55;6.80;99.90
8436;DHT22;4255;48.730;9.156;2023-03-01T16:37:20;6.80;99.90
8436;DHT22;4255;48.730;9.156;2023-03-01T16:39:47;6.70;99.90
8436;DHT22;4255;48.730;9.156;2023-03-01T16:42:16;6.70;99.90
8436;DHT22;4255;48.730;9.156;2023-03-01T16:44:42;6.70;99.90
8436;DHT22;4255;48.730;9.156;2023-03-01T16:47:07;6.60;99.90
8436;DHT22;4255;48.730;9.156;2023-03-01T16:49:33;6.50;99.90
8436;DHT22;4255;48.730;9.156;2023-03-01T16:51:58;6.50;99.90
8436;DHT22;4255;48.730;9.156;2023-03-01T16:54:24;6.40;99.90
8436;DHT22;4255;48.730;9.156;2023-03-01T16:56:50;6.50;99.90
8436;DHT22;4255;48.730;9.156;2023-03-01T16:59:15;6.60;99.90
8436;DHT22;4255;48.730;9.156;2023-03-01T17:01:43;6.50;99.90
8436;DHT22;4255;48.730;9.156;2023-03-01T17:04:12;6.60;99.90
8436;DHT22;4255;48.730;9.156;2023-03-01T17:06:38;6.50;99.90
8436;DHT22;4255;48.730;9.156;2023-03-01T17:09:04;6.40;99.90
8436;DHT22;4255;48.730;9.156;2023-03-01T17:11:30;6.40;99.90
8436;DHT22;4255;48.730;9.156;2023-03-01T17:13:55;6.30;99.90
8436;DHT22;4255;48.730;9.156;2023-03-01T17:16:21;6.40;99.90
8436;DHT22;4255;48.730;9.156;2023-03-01T17:18:48;6.40;99.90
8436;DHT22;4255;48.730;9.156;2023-03-01T17:21:14;6.30;99.90
8436;DHT22;4255;48.730;9.156;2023-03-01T17:23:43;6.30;99.90
8436;DHT22;4255;48.730;9.156;2023-03-01T17:26:09;6.30;99.90
8436;DHT22;4255;48.730;9.156;2023-03-01T17:28:35;6.30;99.90
8436;DHT22;4255;48.730;9.156;2023-03-01T17:31:02;6.20;99.90
8436;DHT22;4255;48.730;9.156;2023-03-01T17:33:29;6.20;99.90
8436;DHT22;4255;48.730;9.156;2023-03-01T17:35:56;6.10;99.90
8436;DHT22;4255;48.730;9.156;2023-03-01T17:38:22;6.30;99.90
8436;DHT22;4255;48.730;9.156;2023-03-01T17:40:48;6.20;99.90
8436;DHT22;4255;48.730;9.156;2023-03-01T17:43:16;6.10;99.90
8436;DHT22;4255;48.730;9.156;2023-03-01T17:45:42;6.00;99.90
8436;DHT22;4255;48.730;9.156;2023-03-01T17:48:11;6.10;99.90
8436;DHT22;4255;48.730;9.156;2023-03-01T17:50:38;6.10;99.90
8436;DHT22;4255;48.730;9.156;2023-03-01T17:53:05;6.00;99.90
8436;DHT22;4255;48.730;9.156;2023-03-01T17:55:38;5.90;99.90
8436;DHT22;4255;48.730;9.156;2023-03-01T17:58:05;5.90;99.90
8436;DHT22;4255;48.730;9.156;2023-03-01T18:00:31;5.90;99.90
8436;DHT22;4255;48.730;9.156;2023-03-01T18:02:57;5.80;99.90
8436;DHT22;4255;48.730;9.156;2023-03-01T18:05:23;5.70;99.90
8436;DHT22;4255;48.730;9.156;2023-03-01T18:07:50;5.50;99.90
8436;DHT22;4255;48.730;9.156;2023-03-01T18:10:17;5.60;99.90
8436;DHT22;4255;48.730;9.156;2023-03-01T18:12:43;5.80;99.90
8436;DHT22;4255;48.730;9.156;2023-03-01T18:15:10;5.90;99.90
8436;DHT22;4255;48.730;9.156;2023-03-01T18:17:35;5.90;99.90
8436;DHT22;4255;48.730;9.156;2023-03-01T18:20:01;5.80;99.90